Time;durP1;ratioP1;P1;durP2;ratioP2;P2;SDS_P1;SDS_P2;PMS_P1;PMS_P2;Temp;Humidity;BMP_temperature;BMP_pressure;BME280_temperature;BME280_humidity;BME280_pressure;Samples;Min_cycle;Max_cycle;Signal;HPM_P1;HPM_P2
2023/09/08 00:02:21;;;;;;;10.20;9.30;;;;;;;;;;4995481;28;20470;-65
2023/09/08 00:04:47;;;;;;;9.43;8.67;;;;;;;;;;4994414;28;20429;-65
2023/09/08 00:07:13;;;;;;;10.00;9.00;;;;;;;;;;4993773;28;20427;-65
2023/09/08 00:09:39;;;;;;;8.80;8.13;;;;;;;;;;4995300;28;20439;-65
2023/09/08 00:12:05;;;;;;;10.73;9.73;;;;;;;;;;4994950;28;20419;-63
2023/09/08 00:14:31;;;;;;;10.53;9.70;;;;;;;;;;4995245;28;20445;-63
2023/09/08 00:16:57;;;;;;;10.17;9.20;;;;;;;;;;4995315;28;20422;-63
2023/09/08 00:19:23;;;;;;;9.67;8.97;;;;;;;;;;4994467;28;20475;-63
2023/09/08 00:21:49;;;;;;;9.10;8.47;;;;;;;;;;4995505;28;20415;-63
2023/09/08 00:24:16;;;;;;;9.50;8.90;;;;;;;;;;4994825;28;20924;-63
2023/09/08 00:26:42;;;;;;;9.77;9.07;;;;;;;;;;4994952;28;20506;-63
2023/09/08 00:29:08;;;;;;;10.50;9.70;;;;;;;;;;4994831;28;21018;-63
2023/09/08 00:31:34;;;;;;;10.37;9.40;;;;;;;;;;4995001;28;20428;-63
2023/09/08 00:34:00;;;;;;;11.53;10.00;;;;;;;;;;4994579;28;20942;-63
2023/09/08 00:36:26;;;;;;;10.20;9.20;;;;;;;;;;4994644;28;20418;-63
2023/09/08 00:38:52;;;;;;;9.73;9.03;;;;;;;;;;4994507;28;20491;-63
2023/09/08 00:41:18;;;;;;;12.40;8.97;;;;;;;;;;4993475;28;20497;-63
2023/09/08 00:43:43;;;;;;;10.73;9.00;;;;;;;;;;4994319;28;20436;-63
2023/09/08 00:46:10;;;;;;;10.37;9.33;;;;;;;;;;4993699;28;20520;-63
2023/09/08 00:48:37;;;;;;;8.63;8.13;;;;;;;;;;4994136;28;20491;-63
2023/09/08 00:51:05;;;;;;;10.03;8.63;;;;;;;;;;4994841;28;20461;-63
2023/09/08 00:53:34;;;;;;;9.50;8.90;;;;;;;;;;4994381;28;20447;-63
2023/09/08 00:56:00;;;;;;;9.10;8.30;;;;;;;;;;4994402;28;20450;-63
2023/09/08 00:58:28;;;;;;;9.93;9.10;;;;;;;;;;4992936;28;20415;-63
2023/09/08 01:00:54;;;;;;;9.80;9.00;;;;;;;;;;4994366;28;20428;-63
2023/09/08 01:03:20;;;;;;;10.03;9.30;;;;;;;;;;4994353;28;20431;-63
2023/09/08 01:05:48;;;;;;;9.93;8.90;;;;;;;;;;4994090;28;20474;-63
2023/09/08 01:08:14;;;;;;;11.13;9.70;;;;;;;;;;4994039;28;20413;-63
2023/09/08 01:10:42;;;;;;;10.10;9.30;;;;;;;;;;4993796;28;20439;-63
2023/09/08 01:13:08;;;;;;;10.90;8.60;;;;;;;;;;4992709;28;20427;-64
2023/09/08 01:15:36;;;;;;;9.83;8.20;;;;;;;;;;4993954;28;20790;-64
2023/09/08 01:18:02;;;;;;;9.43;8.77;;;;;;;;;;4992951;28;20457;-64
2023/09/08 01:20:43;;;;;;;12.93;8.27;;;;;;;;;;4993775;28;20968;-64
2023/09/08 01:23:09;;;;;;;10.33;9.30;;;;;;;;;;4994313;28;20402;-64
2023/09/08 01:25:38;;;;;;;10.13;9.43;;;;;;;;;;4993794;28;20470;-64
2023/09/08 01:28:05;;;;;;;10.70;9.87;;;;;;;;;;4993882;28;20415;-64
2023/09/08 01:30:34;;;;;;;11.17;10.30;;;;;;;;;;4993489;28;20477;-64
2023/09/08 01:33:00;;;;;;;11.80;10.63;;;;;;;;;;4993700;28;20409;-64
2023/09/08 01:35:26;;;;;;;13.33;11.13;;;;;;;;;;4993756;28;20487;-64
2023/09/08 01:37:55;;;;;;;9.77;8.87;;;;;;;;;;4992358;28;20499;-64
2023/09/08 01:40:23;;;;;;;13.10;10.07;;;;;;;;;;4993798;28;20481;-64
2023/09/08 01:42:49;;;;;;;9.93;9.20;;;;;;;;;;4993548;28;20421;-64
2023/09/08 01:45:15;;;;;;;10.30;9.30;;;;;;;;;;4993476;28;20522;-64
2023/09/08 01:47:41;;;;;;;9.23;8.63;;;;;;;;;;4993336;28;20527;-64
2023/09/08 01:50:09;;;;;;;9.83;8.97;;;;;;;;;;4993450;28;20434;-64
2023/09/08 01:52:36;;;;;;;10.77;8.93;;;;;;;;;;4993081;28;20418;-64
2023/09/08 01:55:02;;;;;;;11.20;9.57;;;;;;;;;;4993442;28;20437;-64
2023/09/08 01:57:28;;;;;;;9.97;8.93;;;;;;;;;;4993340;28;20409;-64
2023/09/08 01:59:54;;;;;;;9.60;8.80;;;;;;;;;;4991991;28;20476;-64
2023/09/08 02:02:20;;;;;;;9.87;9.20;;;;;;;;;;4993342;28;20426;-64
2023/09/08 02:04:48;;;;;;;11.40;9.57;;;;;;;;;;4993003;28;20430;-64
2023/09/08 02:07:14;;;;;;;9.67;8.97;;;;;;;;;;4993507;28;20793;-64
2023/09/08 02:09:40;;;;;;;9.73;8.83;;;;;;;;;;4992815;28;20502;-64
2023/09/08 02:12:06;;;;;;;8.60;8.03;;;;;;;;;;4993053;28;20507;-64
2023/09/08 02:14:32;;;;;;;8.93;8.33;;;;;;;;;;4993015;28;20421;-64
2023/09/08 02:17:00;;;;;;;8.73;8.23;;;;;;;;;;4993544;28;20428;-64
2023/09/08 02:19:26;;;;;;;9.30;8.70;;;;;;;;;;4993132;28;20795;-64
2023/09/08 02:21:55;;;;;;;8.13;7.53;;;;;;;;;;4993151;28;20429;-64
2023/09/08 02:24:23;;;;;;;10.07;9.10;;;;;;;;;;4992926;28;20413;-64
2023/09/08 02:26:50;;;;;;;9.50;8.10;;;;;;;;;;4991970;28;20869;-64
2023/09/08 02:29:18;;;;;;;9.00;8.30;;;;;;;;;;4993148;28;20420;-64
2023/09/08 02:31:44;;;;;;;8.50;7.90;;;;;;;;;;4993286;28;20448;-64
2023/09/08 02:34:12;;;;;;;9.40;8.80;;;;;;;;;;4993101;28;20453;-64
2023/09/08 02:36:38;;;;;;;11.90;10.87;;;;;;;;;;4993353;28;20448;-64
2023/09/08 02:39:04;;;;;;;10.90;10.10;;;;;;;;;;4992919;28;20418;-64
2023/09/08 02:41:30;;;;;;;10.53;9.47;;;;;;;;;;4993058;28;20506;-64
2023/09/08 02:43:59;;;;;;;9.50;8.67;;;;;;;;;;4993209;28;20427;-64
2023/09/08 02:46:25;;;;;;;10.70;9.80;;;;;;;;;;4992625;28;20507;-64
2023/09/08 02:48:52;;;;;;;10.17;9.37;;;;;;;;;;4992847;28;20469;-64
2023/09/08 02:51:18;;;;;;;9.50;8.70;;;;;;;;;;4992883;28;20513;-64
2023/09/08 02:53:46;;;;;;;9.43;8.83;;;;;;;;;;4992953;28;20466;-64
2023/09/08 02:56:12;;;;;;;11.20;10.30;;;;;;;;;;4992839;28;20473;-64
2023/09/08 02:58:38;;;;;;;9.47;8.77;;;;;;;;;;4993182;28;20453;-64
2023/09/08 03:01:13;;;;;;;9.97;9.17;;;;;;;;;;4992646;28;20429;-64
2023/09/08 03:03:39;;;;;;;9.20;8.60;;;;;;;;;;4993219;28;20432;-64
2023/09/08 03:06:05;;;;;;;9.27;8.53;;;;;;;;;;4994505;28;20507;-64
2023/09/08 03:08:31;;;;;;;10.20;9.30;;;;;;;;;;4996555;28;20411;-64
2023/09/08 03:10:57;;;;;;;9.40;8.23;;;;;;;;;;4996312;28;20492;-64
2023/09/08 03:13:23;;;;;;;9.97;9.17;;;;;;;;;;4996379;28;20928;-64
2023/09/08 03:15:49;;;;;;;9.27;8.57;;;;;;;;;;4996068;28;20437;-64
2023/09/08 03:18:15;;;;;;;8.93;8.20;;;;;;;;;;4996059;28;20834;-64
2023/09/08 03:20:41;;;;;;;9.10;8.30;;;;;;;;;;4996270;28;20445;-64
2023/09/08 03:23:09;;;;;;;9.73;8.77;;;;;;;;;;4996166;28;20416;-64
2023/09/08 03:25:35;;;;;;;8.77;8.27;;;;;;;;;;4996070;28;20537;-64
2023/09/08 03:28:01;;;;;;;9.00;8.40;;;;;;;;;;4996036;28;20905;-64
2023/09/08 03:30:30;;;;;;;9.40;8.67;;;;;;;;;;4996066;28;20420;-64
2023/09/08 03:32:58;;;;;;;9.40;8.70;;;;;;;;;;4996130;28;20885;-64
2023/09/08 03:35:24;;;;;;;9.77;8.80;;;;;;;;;;4995948;28;20441;-64
2023/09/08 03:37:52;;;;;;;7.90;7.40;;;;;;;;;;4995988;28;20839;-64
2023/09/08 03:40:21;;;;;;;12.93;8.33;;;;;;;;;;4995779;28;20421;-64
2023/09/08 03:42:47;;;;;;;8.20;7.80;;;;;;;;;;4994348;28;20440;-64
2023/09/08 03:45:13;;;;;;;8.60;8.00;;;;;;;;;;4995790;28;20540;-64
2023/09/08 03:47:41;;;;;;;9.27;8.47;;;;;;;;;;4995607;28;20494;-64
2023/09/08 03:50:07;;;;;;;7.80;7.40;;;;;;;;;;4995584;28;20589;-64
2023/09/08 03:52:33;;;;;;;8.10;7.43;;;;;;;;;;4995724;28;20443;-64
2023/09/08 03:54:59;;;;;;;8.37;7.87;;;;;;;;;;4995602;28;20416;-64
2023/09/08 03:57:25;;;;;;;8.57;8.07;;;;;;;;;;4994325;28;20417;-64
2023/09/08 03:59:51;;;;;;;9.77;9.00;;;;;;;;;;4994296;28;20448;-64
2023/09/08 04:02:17;;;;;;;9.30;8.67;;;;;;;;;;4995203;28;20441;-64
2023/09/08 04:04:43;;;;;;;9.67;8.73;;;;;;;;;;4995312;28;20427;-64
2023/09/08 04:07:09;;;;;;;9.60;8.90;;;;;;;;;;4995207;28;20491;-64
2023/09/08 04:09:38;;;;;;;9.00;8.30;;;;;;;;;;4985628;28;20429;-64
2023/09/08 04:12:04;;;;;;;8.10;7.40;;;;;;;;;;4975687;28;20540;-64
2023/09/08 04:14:30;;;;;;;16.13;14.63;;;;;;;;;;4975756;28;20419;-64
2023/09/08 04:16:56;;;;;;;9.37;8.60;;;;;;;;;;4975076;28;20480;-64
2023/09/08 04:19:22;;;;;;;9.60;8.87;;;;;;;;;;4974127;28;20462;-64
2023/09/08 04:21:50;;;;;;;46.23;36.47;;;;;;;;;;4975150;28;20438;-64
2023/09/08 04:24:16;;;;;;;13.53;12.43;;;;;;;;;;4975566;28;20417;-64
2023/09/08 04:26:42;;;;;;;8.83;8.23;;;;;;;;;;4974935;28;20473;-64
2023/09/08 04:29:08;;;;;;;9.60;8.93;;;;;;;;;;4975461;28;20472;-64
2023/09/08 04:31:37;;;;;;;10.10;9.40;;;;;;;;;;4975442;28;20524;-64
2023/09/08 04:34:03;;;;;;;10.40;9.70;;;;;;;;;;4975420;28;20516;-64
2023/09/08 04:36:30;;;;;;;14.33;8.70;;;;;;;;;;4975011;28;20456;-64
2023/09/08 04:38:58;;;;;;;9.00;8.40;;;;;;;;;;4975135;28;20428;-64
2023/09/08 04:41:24;;;;;;;111.30;28.17;;;;;;;;;;4974933;28;20977;-64
2023/09/08 04:43:53;;;;;;;217.47;105.00;;;;;;;;;;4975253;28;20419;-64
2023/09/08 04:46:19;;;;;;;27.70;19.90;;;;;;;;;;4975041;28;20471;-64
2023/09/08 04:48:45;;;;;;;71.90;35.13;;;;;;;;;;4974790;28;20438;-64
2023/09/08 04:51:16;;;;;;;28.67;20.40;;;;;;;;;;4975021;28;20421;-64
2023/09/08 04:53:42;;;;;;;64.67;44.50;;;;;;;;;;4974967;28;20416;-64
2023/09/08 04:56:08;;;;;;;11.67;10.73;;;;;;;;;;4973424;28;20426;-64
2023/09/08 04:58:36;;;;;;;10.60;9.30;;;;;;;;;;4975067;28;20434;-64
2023/09/08 05:01:02;;;;;;;9.27;8.33;;;;;;;;;;4974596;28;20431;-64
2023/09/08 05:03:31;;;;;;;12.10;8.80;;;;;;;;;;4974880;28;20767;-64
2023/09/08 05:06:01;;;;;;;9.60;9.00;;;;;;;;;;4974796;28;20469;-64
2023/09/08 05:08:27;;;;;;;9.17;8.27;;;;;;;;;;4973248;28;20441;-64
2023/09/08 05:10:55;;;;;;;7.70;7.30;;;;;;;;;;4974835;28;20917;-64
2023/09/08 05:13:26;;;;;;;8.00;7.60;;;;;;;;;;4974620;28;21034;-64
2023/09/08 05:15:59;;;;;;;9.00;8.10;;;;;;;;;;4974284;28;20564;-65
2023/09/08 05:18:28;;;;;;;8.77;8.07;;;;;;;;;;4974385;28;20860;-64
2023/09/08 05:20:56;;;;;;;9.37;8.43;;;;;;;;;;4974294;28;20409;-64
2023/09/08 05:23:22;;;;;;;10.20;8.47;;;;;;;;;;4974134;28;20845;-64
2023/09/08 05:25:48;;;;;;;13.70;9.97;;;;;;;;;;4974179;28;20462;-64
2023/09/08 05:28:14;;;;;;;10.43;9.00;;;;;;;;;;4973825;28;20421;-64
2023/09/08 05:30:42;;;;;;;11.63;8.40;;;;;;;;;;4974155;28;20417;-64
2023/09/08 05:33:10;;;;;;;9.97;9.07;;;;;;;;;;4974367;28;20464;-64
2023/09/08 05:35:36;;;;;;;9.30;8.53;;;;;;;;;;4974194;28;20433;-64
2023/09/08 05:38:05;;;;;;;10.03;9.10;;;;;;;;;;4974084;28;20417;-64
2023/09/08 05:40:31;;;;;;;8.83;8.10;;;;;;;;;;4974024;28;20586;-64
2023/09/08 05:42:57;;;;;;;8.80;7.90;;;;;;;;;;4974062;28;20437;-64
2023/09/08 05:45:25;;;;;;;9.27;8.47;;;;;;;;;;4972905;28;20994;-64
2023/09/08 05:47:51;;;;;;;9.23;8.37;;;;;;;;;;4973746;28;20554;-64
2023/09/08 05:50:19;;;;;;;9.50;8.70;;;;;;;;;;4973852;28;20511;-64
2023/09/08 05:52:48;;;;;;;9.33;8.70;;;;;;;;;;4974078;28;20442;-64
2023/09/08 05:55:16;;;;;;;8.87;8.27;;;;;;;;;;4974035;28;20496;-64
2023/09/08 05:57:45;;;;;;;9.90;9.00;;;;;;;;;;4974012;28;20467;-64
2023/09/08 06:00:12;;;;;;;9.93;9.10;;;;;;;;;;4972815;28;20445;-64
2023/09/08 06:02:38;;;;;;;10.00;8.97;;;;;;;;;;4973704;28;20918;-64
2023/09/08 06:05:05;;;;;;;9.17;8.60;;;;;;;;;;4973909;28;20558;-64
2023/09/08 06:07:31;;;;;;;8.77;8.27;;;;;;;;;;4973958;28;20452;-64
2023/09/08 06:09:59;;;;;;;9.00;8.37;;;;;;;;;;4973961;28;20418;-64
2023/09/08 06:12:25;;;;;;;9.33;8.50;;;;;;;;;;4973707;28;20531;-64
2023/09/08 06:14:53;;;;;;;10.00;8.97;;;;;;;;;;4973573;28;20454;-64
2023/09/08 06:17:19;;;;;;;9.23;8.53;;;;;;;;;;4973788;28;20941;-64
2023/09/08 06:19:47;;;;;;;8.73;8.17;;;;;;;;;;4973789;28;20403;-64
2023/09/08 06:22:13;;;;;;;9.20;8.50;;;;;;;;;;4973759;28;20431;-64
2023/09/08 06:24:40;;;;;;;11.50;10.20;;;;;;;;;;4973760;28;20499;-64
2023/09/08 06:27:06;;;;;;;12.00;10.80;;;;;;;;;;4973619;28;20462;-64
2023/09/08 06:29:32;;;;;;;12.60;11.30;;;;;;;;;;4973756;28;20454;-64
2023/09/08 06:32:01;;;;;;;11.10;10.20;;;;;;;;;;4973579;28;20408;-64
2023/09/08 06:34:27;;;;;;;13.97;11.73;;;;;;;;;;4973645;28;20512;-64
2023/09/08 06:36:55;;;;;;;12.90;11.50;;;;;;;;;;4973500;28;20855;-64
2023/09/08 06:39:21;;;;;;;13.03;11.70;;;;;;;;;;4972913;28;20424;-64
2023/09/08 06:41:49;;;;;;;12.27;11.27;;;;;;;;;;4977432;28;20432;-64
2023/09/08 06:44:15;;;;;;;10.80;9.70;;;;;;;;;;4977435;28;20495;-64
2023/09/08 06:46:41;;;;;;;11.30;10.40;;;;;;;;;;4976749;28;20471;-64
2023/09/08 06:49:10;;;;;;;10.87;10.10;;;;;;;;;;4977286;28;20431;-64
2023/09/08 06:51:41;;;;;;;10.17;9.13;;;;;;;;;;4976494;28;20412;-64
2023/09/08 06:54:07;;;;;;;13.40;11.10;;;;;;;;;;4976881;28;20963;-64
2023/09/08 06:56:33;;;;;;;12.30;11.40;;;;;;;;;;4977385;28;20430;-64
2023/09/08 06:58:59;;;;;;;12.33;11.30;;;;;;;;;;4977035;28;20417;-64
2023/09/08 07:01:29;;;;;;;11.70;10.70;;;;;;;;;;4977082;28;20478;-64
2023/09/08 07:03:55;;;;;;;12.50;11.30;;;;;;;;;;4976961;28;20424;-64
2023/09/08 07:06:22;;;;;;;12.87;11.60;;;;;;;;;;4976696;28;20472;-64
2023/09/08 07:08:50;;;;;;;11.40;10.43;;;;;;;;;;4975511;28;20539;-64
2023/09/08 07:11:18;;;;;;;14.80;13.50;;;;;;;;;;4976730;28;20420;-64
2023/09/08 07:13:44;;;;;;;12.47;11.37;;;;;;;;;;4976799;28;20508;-64
2023/09/08 07:16:10;;;;;;;12.73;11.63;;;;;;;;;;4976747;28;20946;-64
2023/09/08 07:18:37;;;;;;;12.43;11.20;;;;;;;;;;4976893;28;20508;-64
2023/09/08 07:21:04;;;;;;;14.13;12.67;;;;;;;;;;4976628;28;20468;-64
2023/09/08 07:23:30;;;;;;;12.60;11.50;;;;;;;;;;4976645;28;20448;-63
2023/09/08 07:25:56;;;;;;;15.03;12.20;;;;;;;;;;4976450;28;20490;-63
2023/09/08 07:28:22;;;;;;;14.10;11.27;;;;;;;;;;4976701;28;20441;-64
2023/09/08 07:30:47;;;;;;;13.30;12.00;;;;;;;;;;4976651;28;20896;-63
2023/09/08 07:33:14;;;;;;;13.23;11.93;;;;;;;;;;4976054;28;20440;-63
2023/09/08 07:35:43;;;;;;;15.57;11.17;;;;;;;;;;4976631;28;20504;-63
2023/09/08 07:38:09;;;;;;;11.63;10.40;;;;;;;;;;4976142;28;20503;-63
2023/09/08 07:40:35;;;;;;;12.87;11.67;;;;;;;;;;4975260;28;20508;-63
2023/09/08 07:43:01;;;;;;;14.50;11.77;;;;;;;;;;4974976;28;20446;-63
2023/09/08 07:45:27;;;;;;;13.30;12.10;;;;;;;;;;4974955;28;20466;-63
2023/09/08 07:47:53;;;;;;;17.60;11.50;;;;;;;;;;4976198;28;20492;-63
2023/09/08 07:50:23;;;;;;;12.33;11.23;;;;;;;;;;4975663;28;20592;-63
2023/09/08 07:52:55;;;;;;;12.03;11.00;;;;;;;;;;4976229;28;20989;-63
2023/09/08 07:55:27;;;;;;;12.40;11.50;;;;;;;;;;4976167;28;20545;-64
2023/09/08 07:57:53;;;;;;;12.43;11.37;;;;;;;;;;4976065;28;20427;-64
2023/09/08 08:00:19;;;;;;;15.10;10.80;;;;;;;;;;4976180;28;20698;-64
2023/09/08 08:02:47;;;;;;;12.67;11.47;;;;;;;;;;4975970;28;20434;-64
2023/09/08 08:05:13;;;;;;;12.07;10.30;;;;;;;;;;4975861;28;20536;-64
2023/09/08 08:07:41;;;;;;;12.43;10.37;;;;;;;;;;4976074;28;20486;-64
2023/09/08 08:10:10;;;;;;;11.30;10.13;;;;;;;;;;4974623;28;20427;-64
2023/09/08 08:12:37;;;;;;;11.50;9.40;;;;;;;;;;4975795;28;20438;-64
2023/09/08 08:15:04;;;;;;;11.93;10.83;;;;;;;;;;4974522;28;20484;-64
2023/09/08 08:17:32;;;;;;;10.90;9.80;;;;;;;;;;4975809;28;20903;-64
2023/09/08 08:19:59;;;;;;;12.83;9.70;;;;;;;;;;4975721;28;20410;-64
2023/09/08 08:22:25;;;;;;;10.50;9.70;;;;;;;;;;4975372;28;20407;-64
2023/09/08 08:24:51;;;;;;;11.43;10.20;;;;;;;;;;4975569;28;20453;-64
2023/09/08 08:27:19;;;;;;;10.20;9.30;;;;;;;;;;4975326;28;20437;-64
2023/09/08 08:29:45;;;;;;;11.90;9.77;;;;;;;;;;4975626;28;20432;-64
2023/09/08 08:32:12;;;;;;;9.37;8.57;;;;;;;;;;4975415;28;20472;-64
2023/09/08 08:34:42;;;;;;;9.33;8.60;;;;;;;;;;4975369;28;20517;-64
2023/09/08 08:37:08;;;;;;;12.30;9.23;;;;;;;;;;4975364;28;20418;-64
2023/09/08 08:39:34;;;;;;;11.00;8.70;;;;;;;;;;4975312;28;20461;-64
2023/09/08 08:42:07;;;;;;;9.70;8.87;;;;;;;;;;4973975;28;20425;-64
2023/09/08 08:44:40;;;;;;;10.73;9.73;;;;;;;;;;4975386;28;20452;-64
2023/09/08 08:47:10;;;;;;;9.80;8.90;;;;;;;;;;4973789;28;20496;-64
2023/09/08 08:49:38;;;;;;;9.53;8.73;;;;;;;;;;4975188;28;20444;-64
2023/09/08 08:52:07;;;;;;;9.27;8.40;;;;;;;;;;4973765;28;20448;-64
2023/09/08 08:54:38;;;;;;;9.20;8.50;;;;;;;;;;4974945;28;20977;-64
2023/09/08 08:57:04;;;;;;;9.57;8.60;;;;;;;;;;4975134;28;20421;-64
2023/09/08 08:59:30;;;;;;;12.27;8.20;;;;;;;;;;4974865;28;20422;-64
2023/09/08 09:01:56;;;;;;;9.50;8.40;;;;;;;;;;4974016;28;20932;-64
2023/09/08 09:04:23;;;;;;;9.30;8.47;;;;;;;;;;4974777;28;20496;-64
2023/09/08 09:06:49;;;;;;;8.97;8.17;;;;;;;;;;4974764;28;20502;-64
2023/09/08 09:09:15;;;;;;;8.63;7.70;;;;;;;;;;4974549;28;20493;-64
2023/09/08 09:11:41;;;;;;;15.33;7.60;;;;;;;;;;4974700;28;20410;-64
2023/09/08 09:14:07;;;;;;;8.40;7.57;;;;;;;;;;4974499;28;20438;-64
2023/09/08 09:16:42;;;;;;;8.10;7.50;;;;;;;;;;4974863;28;20514;-64
2023/09/08 09:19:08;;;;;;;8.43;7.60;;;;;;;;;;4974635;28;20442;-64
2023/09/08 09:21:43;;;;;;;9.37;7.70;;;;;;;;;;4974534;28;20424;-64
2023/09/08 09:24:16;;;;;;;11.33;8.50;;;;;;;;;;4974361;28;20442;-64
2023/09/08 09:26:43;;;;;;;7.50;7.10;;;;;;;;;;4973142;28;20481;-64
2023/09/08 09:29:13;;;;;;;8.27;7.63;;;;;;;;;;4974427;28;20438;-64
2023/09/08 09:31:51;;;;;;;7.70;7.10;;;;;;;;;;4974331;28;20475;-64
2023/09/08 09:34:20;;;;;;;9.53;7.30;;;;;;;;;;4974182;28;20525;-64
2023/09/08 09:36:48;;;;;;;8.00;7.47;;;;;;;;;;4974344;28;20419;-64
2023/09/08 09:39:14;;;;;;;10.40;7.53;;;;;;;;;;4972928;28;20836;-64
2023/09/08 09:41:41;;;;;;;8.13;7.60;;;;;;;;;;4974152;28;20501;-64
2023/09/08 09:44:07;;;;;;;7.53;6.83;;;;;;;;;;4972693;28;20458;-63
2023/09/08 09:46:34;;;;;;;7.33;6.83;;;;;;;;;;4973974;28;20477;-64
2023/09/08 09:49:00;;;;;;;6.73;6.37;;;;;;;;;;4974084;28;20438;-64
2023/09/08 09:51:26;;;;;;;7.43;6.93;;;;;;;;;;4973986;28;20806;-64
2023/09/08 09:53:54;;;;;;;7.73;7.10;;;;;;;;;;4973869;28;20417;-64
2023/09/08 09:56:22;;;;;;;10.27;7.30;;;;;;;;;;4974405;28;20509;-64
2023/09/08 09:58:48;;;;;;;6.70;6.13;;;;;;;;;;4974065;28;20438;-64
2023/09/08 10:01:14;;;;;;;6.97;6.40;;;;;;;;;;4973912;28;20515;-64
2023/09/08 10:03:40;;;;;;;8.17;5.83;;;;;;;;;;4973879;28;20458;-64
2023/09/08 10:06:06;;;;;;;8.10;7.47;;;;;;;;;;4973876;28;20469;-64
2023/09/08 10:08:39;;;;;;;7.23;6.53;;;;;;;;;;4973804;28;20835;-64
2023/09/08 10:11:09;;;;;;;7.17;6.37;;;;;;;;;;4972941;28;20818;-64
2023/09/08 10:13:40;;;;;;;6.63;6.10;;;;;;;;;;4973179;28;20820;-64
2023/09/08 10:16:06;;;;;;;6.60;6.10;;;;;;;;;;4973893;28;20506;-64
2023/09/08 10:18:34;;;;;;;7.10;6.50;;;;;;;;;;4973688;28;20426;-64
2023/09/08 10:21:04;;;;;;;7.00;6.40;;;;;;;;;;4973867;28;20425;-64
2023/09/08 10:23:43;;;;;;;6.60;6.13;;;;;;;;;;4973973;28;20908;-64
2023/09/08 10:26:12;;;;;;;6.43;6.03;;;;;;;;;;4973864;28;20536;-64
2023/09/08 10:28:38;;;;;;;7.53;6.77;;;;;;;;;;4974982;28;20415;-64
2023/09/08 10:31:05;;;;;;;6.13;5.83;;;;;;;;;;4974550;28;20525;-65
2023/09/08 10:33:35;;;;;;;5.90;5.40;;;;;;;;;;4973895;28;20773;-65
2023/09/08 10:36:03;;;;;;;6.40;6.00;;;;;;;;;;4973615;28;20438;-64
2023/09/08 10:38:33;;;;;;;8.30;5.93;;;;;;;;;;4973610;28;20518;-64
2023/09/08 10:41:20;;;;;;;5.70;5.40;;;;;;;;;;4973622;28;20513;-64
2023/09/08 10:43:47;;;;;;;6.00;5.70;;;;;;;;;;4973562;28;20916;-64
2023/09/08 10:46:23;;;;;;;6.03;5.73;;;;;;;;;;4973548;28;20946;-64
2023/09/08 10:48:53;;;;;;;6.50;5.90;;;;;;;;;;4973369;28;20430;-64
2023/09/08 10:51:25;;;;;;;8.70;6.23;;;;;;;;;;4973557;28;20800;-64
2023/09/08 10:53:51;;;;;;;6.13;5.80;;;;;;;;;;4973502;28;20395;-64
2023/09/08 10:56:18;;;;;;;5.80;5.40;;;;;;;;;;4973554;28;20423;-64
2023/09/08 10:58:48;;;;;;;11.40;5.60;;;;;;;;;;4972048;28;20202;-64
2023/09/08 11:01:18;;;;;;;10.27;5.97;;;;;;;;;;4973447;28;20441;-64
2023/09/08 11:03:47;;;;;;;6.07;5.53;;;;;;;;;;4973234;28;20969;-64
2023/09/08 11:06:16;;;;;;;6.60;5.87;;;;;;;;;;4973167;28;20496;-64
2023/09/08 11:08:45;;;;;;;6.60;5.90;;;;;;;;;;4973246;28;20454;-64
2023/09/08 11:11:12;;;;;;;5.90;5.70;;;;;;;;;;4973255;28;20407;-64
2023/09/08 11:13:39;;;;;;;5.57;5.17;;;;;;;;;;4973510;28;20422;-64
2023/09/08 11:16:08;;;;;;;5.77;5.13;;;;;;;;;;4971908;28;20987;-64
2023/09/08 11:18:35;;;;;;;4.90;4.60;;;;;;;;;;4973098;28;20435;-64
2023/09/08 11:21:04;;;;;;;7.33;4.37;;;;;;;;;;4973013;28;20473;-64
2023/09/08 11:23:31;;;;;;;6.20;5.80;;;;;;;;;;4973266;28;21022;-65
2023/09/08 11:25:57;;;;;;;5.40;5.07;;;;;;;;;;4974349;28;20481;-65
2023/09/08 11:28:27;;;;;;;7.93;5.80;;;;;;;;;;4977106;28;20418;-65
2023/09/08 11:30:53;;;;;;;5.10;4.90;;;;;;;;;;4976514;28;20441;-64
2023/09/08 11:33:22;;;;;;;7.37;4.97;;;;;;;;;;4976634;28;20422;-64
2023/09/08 11:35:48;;;;;;;5.50;5.00;;;;;;;;;;4976640;28;20449;-68
2023/09/08 11:38:16;;;;;;;4.77;4.10;;;;;;;;;;4976337;28;20422;-68
2023/09/08 11:40:45;;;;;;;4.97;4.60;;;;;;;;;;4976623;28;20446;-66
2023/09/08 11:43:12;;;;;;;4.23;3.90;;;;;;;;;;4976365;28;20419;-66
2023/09/08 11:45:38;;;;;;;4.63;4.13;;;;;;;;;;4976244;28;20505;-66
2023/09/08 11:48:07;;;;;;;4.83;4.00;;;;;;;;;;4976219;28;20934;-65
2023/09/08 11:50:34;;;;;;;5.07;4.40;;;;;;;;;;4976342;28;20546;-65
2023/09/08 11:53:02;;;;;;;4.20;4.10;;;;;;;;;;4976346;28;20490;-65
2023/09/08 11:55:28;;;;;;;4.47;4.37;;;;;;;;;;4976422;28;20613;-65
2023/09/08 11:57:57;;;;;;;4.57;4.20;;;;;;;;;;4976178;28;20494;-65
2023/09/08 12:00:23;;;;;;;4.43;4.13;;;;;;;;;;4975920;28;20504;-65
2023/09/08 12:02:52;;;;;;;6.87;4.73;;;;;;;;;;4976112;28;20414;-65
2023/09/08 12:05:22;;;;;;;3.83;3.73;;;;;;;;;;4975773;28;20410;-65
2023/09/08 12:07:48;;;;;;;4.93;4.70;;;;;;;;;;4975874;28;20793;-65
2023/09/08 12:10:15;;;;;;;5.03;4.07;;;;;;;;;;4975743;28;20407;-65
2023/09/08 12:12:55;;;;;;;8.60;4.27;;;;;;;;;;4975998;28;20457;-65
2023/09/08 12:15:39;;;;;;;3.80;3.60;;;;;;;;;;4975705;28;20403;-65
2023/09/08 12:18:08;;;;;;;4.27;3.97;;;;;;;;;;4975699;28;20410;-65
2023/09/08 12:20:36;;;;;;;8.37;4.27;;;;;;;;;;4975720;28;20954;-65
2023/09/08 12:23:03;;;;;;;3.80;3.70;;;;;;;;;;4975770;28;20401;-65
2023/09/08 12:25:31;;;;;;;4.50;3.63;;;;;;;;;;4974201;28;20977;-65
2023/09/08 12:27:59;;;;;;;4.17;4.07;;;;;;;;;;4975606;28;20933;-65
2023/09/08 12:30:35;;;;;;;6.20;3.33;;;;;;;;;;4975554;28;20415;-65
2023/09/08 12:33:01;;;;;;;3.83;3.60;;;;;;;;;;4975508;28;20768;-65
2023/09/08 12:35:31;;;;;;;4.63;3.83;;;;;;;;;;4975571;28;20498;-65
2023/09/08 12:38:01;;;;;;;3.87;3.77;;;;;;;;;;4975391;28;20912;-65
2023/09/08 12:40:28;;;;;;;3.90;3.60;;;;;;;;;;4974171;28;20413;-65
2023/09/08 12:42:54;;;;;;;4.53;4.20;;;;;;;;;;4975383;28;20853;-64
2023/09/08 12:45:23;;;;;;;3.97;3.87;;;;;;;;;;4974926;28;20838;-64
2023/09/08 12:47:52;;;;;;;3.80;3.60;;;;;;;;;;4974442;28;20984;-64
2023/09/08 12:50:18;;;;;;;4.27;4.00;;;;;;;;;;4975161;28;20470;-64
2023/09/08 12:52:44;;;;;;;5.17;4.07;;;;;;;;;;4975187;28;20853;-64
2023/09/08 12:55:10;;;;;;;4.10;3.90;;;;;;;;;;4975191;28;20427;-64
2023/09/08 12:57:36;;;;;;;7.43;4.23;;;;;;;;;;4974926;28;20518;-64
2023/09/08 13:00:07;;;;;;;4.53;3.93;;;;;;;;;;4975034;28;20781;-64
2023/09/08 13:02:33;;;;;;;5.50;4.10;;;;;;;;;;4974924;28;20426;-64
2023/09/08 13:04:59;;;;;;;5.10;4.60;;;;;;;;;;4974690;28;20449;-64
2023/09/08 13:07:27;;;;;;;4.20;3.90;;;;;;;;;;4973666;28;20482;-64
2023/09/08 13:09:56;;;;;;;3.80;3.70;;;;;;;;;;4974773;28;20489;-64
2023/09/08 13:12:22;;;;;;;4.47;4.17;;;;;;;;;;4974343;28;20443;-64
2023/09/08 13:14:49;;;;;;;5.30;4.80;;;;;;;;;;4974739;28;20414;-64
2023/09/08 13:17:15;;;;;;;4.13;4.00;;;;;;;;;;4973316;28;20457;-64
2023/09/08 13:19:41;;;;;;;4.20;3.90;;;;;;;;;;4974607;28;20414;-64
2023/09/08 13:22:07;;;;;;;4.17;4.07;;;;;;;;;;4974567;28;20449;-64
2023/09/08 13:24:34;;;;;;;4.57;4.23;;;;;;;;;;4974393;28;20450;-64
2023/09/08 13:27:00;;;;;;;4.50;4.17;;;;;;;;;;4973160;28;20478;-64
2023/09/08 13:29:29;;;;;;;3.97;3.73;;;;;;;;;;4974377;28;20438;-64
2023/09/08 13:31:57;;;;;;;4.00;3.80;;;;;;;;;;4974419;28;20438;-64
2023/09/08 13:34:24;;;;;;;3.77;3.57;;;;;;;;;;4974269;28;20419;-64
2023/09/08 13:36:50;;;;;;;4.63;3.73;;;;;;;;;;4974316;28;20865;-64
2023/09/08 13:39:16;;;;;;;5.63;4.20;;;;;;;;;;4974318;28;20433;-64
2023/09/08 13:41:44;;;;;;;4.73;4.20;;;;;;;;;;4973795;28;20927;-64
2023/09/08 13:44:10;;;;;;;6.67;3.93;;;;;;;;;;4974097;28;20460;-65
2023/09/08 13:46:36;;;;;;;4.33;3.73;;;;;;;;;;4972773;28;20584;-65
2023/09/08 13:49:02;;;;;;;13.30;12.10;;;;;;;;;;4973820;28;20206;-64
2023/09/08 13:51:29;;;;;;;11.60;4.30;;;;;;;;;;4973855;28;20715;-64
2023/09/08 13:53:55;;;;;;;4.03;3.73;;;;;;;;;;4974153;28;20882;-64
2023/09/08 13:56:21;;;;;;;5.60;3.33;;;;;;;;;;4974123;28;20419;-64
2023/09/08 13:58:46;;;;;;;4.10;3.80;;;;;;;;;;4974048;28;20551;-64
2023/09/08 14:01:13;;;;;;;7.27;3.93;;;;;;;;;;4973827;28;20428;-65
2023/09/08 14:03:39;;;;;;;13.50;12.20;;;;;;;;;;4973249;28;20724;-65
2023/09/08 14:06:05;;;;;;;10.33;9.33;;;;;;;;;;4973955;28;20462;-65
2023/09/08 14:08:31;;;;;;;4.07;3.60;;;;;;;;;;4973785;28;20654;-65
2023/09/08 14:10:59;;;;;;;4.33;3.63;;;;;;;;;;4973672;28;20489;-65
2023/09/08 14:13:27;;;;;;;11.40;4.00;;;;;;;;;;4973893;28;20450;-65
2023/09/08 14:15:53;;;;;;;7.03;4.30;;;;;;;;;;4973874;28;20443;-65
2023/09/08 14:18:21;;;;;;;7.63;3.20;;;;;;;;;;4973822;28;20438;-65
2023/09/08 14:20:47;;;;;;;3.80;3.43;;;;;;;;;;4973830;28;20426;-65
2023/09/08 14:23:13;;;;;;;7.90;3.67;;;;;;;;;;4973806;28;20438;-65
2023/09/08 14:25:42;;;;;;;4.10;3.70;;;;;;;;;;4973437;28;20832;-65
2023/09/08 14:28:07;;;;;;;10.83;3.27;;;;;;;;;;4972437;28;20211;-64
2023/09/08 14:30:35;;;;;;;9.87;2.83;;;;;;;;;;4973690;28;20415;-64
2023/09/08 14:33:03;;;;;;;9.20;3.53;;;;;;;;;;4973651;28;20210;-65
2023/09/08 14:35:29;;;;;;;5.87;3.90;;;;;;;;;;4973692;28;20484;-65
2023/09/08 14:37:55;;;;;;;6.90;6.33;;;;;;;;;;4973484;28;20533;-65